Johann Essberger — CQKG — position and weather

sailwx.info

Track history (hours):
 
Tides and Currents Weather Stations Pressure Air Temp Water Temp Dewpoint Dewpoint Depression Visibility Wind Speed Wind Dir Waves Ship Positions

Johann Essberger

Last reported at 2017-Jan-17 23:33 UTC. Time now 2017-Jan-19 08:51 UTC.
Position N 59°38' E 023°51'.

Length 100 m; draft 7.2 m.

Type: Ship (hazmat cat B). MMSI: 255804460.

Date/timePositionNaut miles runAvg speedWind from/ knotsBaromVisibWave heightAir tempDewpointWater temp
2017-Jan-17 23:33N 59°38' E 023°51'37011.4
2017-Jan-16 15:04N 55°34' E 015°11'812.8
2017-Jan-16 14:28N 55°30' E 014°59'1212.9
2017-Jan-16 13:32N 55°24' E 014°41'1212.6
2017-Jan-16 12:33N 55°15' E 014°27'1312.8
2017-Jan-16 11:31N 55°04' E 014°13'1312.6
2017-Jan-16 10:29N 54°58' E 013°53'3612.1
2017-Jan-16 07:32N 54°46' E 012°54'2511.8
2017-Jan-16 05:22N 54°32' E 012°17'18 9.9
2017-Jan-16 03:34N 54°24' E 011°50'10 9.5
2017-Jan-16 02:31N 54°28' E 011°34'9 9.7
2017-Jan-16 01:34N 54°32' E 011°19'9 9.4
2017-Jan-16 00:34N 54°35' E 011°04'10 9.5
2017-Jan-15 23:33N 54°34' E 010°48'59 7.0
2017-Jan-15 15:09N 54°05' E 009°19'4 6.5
2017-Jan-15 14:32N 54°01' E 009°18'8 8.4
2017-Jan-15 13:33N 53°54' E 009°10'3 2.7
2017-Jan-15 12:34N 53°53' E 009°06'1 1.0
2017-Jan-15 11:34N 53°52' E 009°05'1312.6
2017-Jan-15 10:33N 53°52' E 008°43'1313.2
2017-Jan-15 09:32N 53°59' E 008°23'1413.2
2017-Jan-15 08:29N 53°58' E 007°60'13510.2
2017-Jan-14 19:13N 53°09' E 004°28'810.4
2017-Jan-14 18:27N 53°02' E 004°23'1010.8
2017-Jan-14 17:33N 52°53' E 004°17'1511.4
2017-Jan-14 16:16N 52°40' E 004°05'811.4
2017-Jan-14 15:33N 52°33' E 003°58'1410.7
2017-Jan-14 14:14N 52°20' E 003°52'7 9.7
2017-Jan-14 13:33N 52°13' E 003°54'9 9.2
2017-Jan-14 12:33N 52°04' E 003°56'8 8.2
2017-Jan-14 11:33N 51°58' E 004°04'1 1.0
2017-Jan-14 10:15N 51°58' E 004°02'0 0.0
2017-Jan-12 20:33N 51°58' E 004°02'4 4.4
2017-Jan-12 19:33N 51°57' E 004°09'1 0.1
2017-Jan-12 10:12N 51°57' E 004°11'2 2.6
2017-Jan-12 09:33N 51°57' E 004°08'8 7.6
2017-Jan-12 08:34N 51°53' E 004°19'0 0.0
2017-Jan-11 14:32N 51°53' E 004°19'2 1.6
2017-Jan-11 13:33N 51°54' E 004°17'1413.7
2017-Jan-11 12:34N 52°00' E 003°57'9 9.1
2017-Jan-11 11:33N 51°58' E 003°42'1812.9
2017-Jan-11 10:07N 51°48' E 003°18'1811.6
2017-Jan-11 08:32N 51°30' E 003°28'17 7.1
2017-Jan-11 06:08N 51°20' E 003°49'2 4.1
2017-Jan-11 05:33N 51°17' E 003°50'7 6.8
2017-Jan-11 04:33N 51°11' E 003°48'2 0.1
2017-Jan-10 12:33N 51°09' E 003°47'5 4.8
2017-Jan-10 11:33N 51°13' E 003°48'6 6.1
2017-Jan-10 10:33N 51°20' E 003°49'1 0.7
2017-Jan-10 09:33N 51°20' E 003°49'7 6.6
2017-Jan-10 08:33N 51°25' E 003°42'8 8.4
2017-Jan-10 07:33N 51°29' E 003°30'10 9.8
2017-Jan-10 06:33N 51°37' E 003°21'233 8.0
2017-Jan-09 01:33N 53°59' E 008°26'1414.5
2017-Jan-09 00:33N 53°51' E 008°46'1514.6
2017-Jan-08 23:34N 53°53' E 009°11'1312.9
2017-Jan-08 22:33N 53°44' E 009°27'5 5.2
2017-Jan-08 21:31N 53°39' E 009°31'  
Track history (hours):
 
Tides and Currents Weather Stations Pressure Air Temp Water Temp Dewpoint Dewpoint Depression Visibility Wind Speed Wind Dir Waves Ship Positions

Johann Essberger

Last reported at 2017-Jan-17 23:33 UTC. Time now 2017-Jan-19 08:51 UTC.
Position N 59°38' E 023°51'.

Length 100 m; draft 7.2 m.

Type: Ship (hazmat cat B). MMSI: 255804460.

Date/timePositionNaut miles runAvg speedWind from/ knotsBaromVisibWave heightAir tempDewpointWater temp
2017-Jan-17 23:33N 59°38' E 023°51'37011.4
2017-Jan-16 15:04N 55°34' E 015°11'812.8
2017-Jan-16 14:28N 55°30' E 014°59'1212.9
2017-Jan-16 13:32N 55°24' E 014°41'1212.6
2017-Jan-16 12:33N 55°15' E 014°27'1312.8
2017-Jan-16 11:31N 55°04' E 014°13'1312.6
2017-Jan-16 10:29N 54°58' E 013°53'3612.1
2017-Jan-16 07:32N 54°46' E 012°54'2511.8
2017-Jan-16 05:22N 54°32' E 012°17'18 9.9
2017-Jan-16 03:34N 54°24' E 011°50'10 9.5
2017-Jan-16 02:31N 54°28' E 011°34'9 9.7
2017-Jan-16 01:34N 54°32' E 011°19'9 9.4
2017-Jan-16 00:34N 54°35' E 011°04'10 9.5
2017-Jan-15 23:33N 54°34' E 010°48'59 7.0
2017-Jan-15 15:09N 54°05' E 009°19'4 6.5
2017-Jan-15 14:32N 54°01' E 009°18'8 8.4
2017-Jan-15 13:33N 53°54' E 009°10'3 2.7
2017-Jan-15 12:34N 53°53' E 009°06'1 1.0
2017-Jan-15 11:34N 53°52' E 009°05'1312.6
2017-Jan-15 10:33N 53°52' E 008°43'1313.2
2017-Jan-15 09:32N 53°59' E 008°23'1413.2
2017-Jan-15 08:29N 53°58' E 007°60'13510.2
2017-Jan-14 19:13N 53°09' E 004°28'810.4
2017-Jan-14 18:27N 53°02' E 004°23'1010.8
2017-Jan-14 17:33N 52°53' E 004°17'1511.4
2017-Jan-14 16:16N 52°40' E 004°05'811.4
2017-Jan-14 15:33N 52°33' E 003°58'1410.7
2017-Jan-14 14:14N 52°20' E 003°52'7 9.7
2017-Jan-14 13:33N 52°13' E 003°54'9 9.2
2017-Jan-14 12:33N 52°04' E 003°56'8 8.2
2017-Jan-14 11:33N 51°58' E 004°04'1 1.0
2017-Jan-14 10:15N 51°58' E 004°02'0 0.0
2017-Jan-12 20:33N 51°58' E 004°02'4 4.4
2017-Jan-12 19:33N 51°57' E 004°09'1 0.1
2017-Jan-12 10:12N 51°57' E 004°11'2 2.6
2017-Jan-12 09:33N 51°57' E 004°08'8 7.6
2017-Jan-12 08:34N 51°53' E 004°19'0 0.0
2017-Jan-11 14:32N 51°53' E 004°19'2 1.6
2017-Jan-11 13:33N 51°54' E 004°17'1413.7
2017-Jan-11 12:34N 52°00' E 003°57'9 9.1
2017-Jan-11 11:33N 51°58' E 003°42'1812.9
2017-Jan-11 10:07N 51°48' E 003°18'1811.6
2017-Jan-11 08:32N 51°30' E 003°28'17 7.1
2017-Jan-11 06:08N 51°20' E 003°49'2 4.1
2017-Jan-11 05:33N 51°17' E 003°50'7 6.8
2017-Jan-11 04:33N 51°11' E 003°48'2 0.1
2017-Jan-10 12:33N 51°09' E 003°47'5 4.8
2017-Jan-10 11:33N 51°13' E 003°48'6 6.1
2017-Jan-10 10:33N 51°20' E 003°49'1 0.7
2017-Jan-10 09:33N 51°20' E 003°49'7 6.6
2017-Jan-10 08:33N 51°25' E 003°42'8 8.4
2017-Jan-10 07:33N 51°29' E 003°30'10 9.8
2017-Jan-10 06:33N 51°37' E 003°21'233 8.0
2017-Jan-09 01:33N 53°59' E 008°26'1414.5
2017-Jan-09 00:33N 53°51' E 008°46'1514.6
2017-Jan-08 23:34N 53°53' E 009°11'1312.9
2017-Jan-08 22:33N 53°44' E 009°27'5 5.2
2017-Jan-08 21:31N 53°39' E 009°31'  

Dump ship's entire track history